Sheridan, WY

9:24 PM MST on March 02, 2015 (GMT -0700)
Sheridan County | Change Station
CLOSE
Current Station
Airport
Location: Sheridan,
Elevation: 3967 ft
Nearby Weather Stations
Active Advisory: Winter Storm Warning

Elev 3967 ft 44.76 °N, 106.97 °W | Updated 4 minutes ago

Snow
Snow
26 °F
Feels Like 16 °F
N
12
Wind Variable Wind from North

Today
High -- | Low -- °F
--% Chance of Precip.
Yesterday
High -- | Low -- °F
Precip. -- in
6:44 AM 5:56 PM
Waxing Gibbous, 94% visible
Pressure 29.83 in
Visibility 0.8 miles
Clouds Mostly Cloudy 600 ft
Overcast 1200 ft
Windchill 16 °F
Dew Point 23 °F
Humidity 88%
Rainfall 0.00 in
Snow Depth Not available.
UV 0 out of 12
Pollen .40 out of 12
Air Quality Not available.
Flu Activity Not available.
SPECI KSHR 030420Z AUTO 35010KT 3/4SM -SN BR BKN006 OVC012 M03/M05 A2983 RMK AO2 P0003 T10331050

More Conditions Fewer Conditions

Pressure 29.83 in
Visibility 0.8 miles
Clouds Mostly Cloudy 600 ft
Overcast 1200 ft
Windchill 16 °F
Dew Point 23 °F
Humidity 88%
Rainfall 0.00 in
Snow Depth Not available.
UV 0 out of 12
Pollen .40 out of 12
Air Quality Not available.
Flu Activity Not available.
SPECI KSHR 030420Z AUTO 35010KT 3/4SM -SN BR BKN006 OVC012 M03/M05 A2983 RMK AO2 P0003 T10331050

More Conditions Fewer Conditions

10-Day Weather Forecast

Almanac

Astronomy

Mar. 02, 2015 Rise Set
Actual Time
Civil Twilight
Nautical Twilight
Astronomical Twilight
Moon
Length of Visible Light
Length of Day
Tomorrow will be .
, % of the Moon is Illuminated

Today's Extremes

State Highs State Lows

Community

WunderPhotos

Upload Photos

1,802,064 photos uploaded!

WunderBlogs® & News

Nearby

Air Quality

  Air Quality AQ Index Pollutant
Not available.

Snow Depth

Station Depth Elevation

Earthquake Activity

City Distance Mag. Time & Date
Minimum magnitude displayed is 2.5.

Coastal Water Temperatures

Place Temperature

Nearby Weather Stations

Winter Storm Warning
Statement as of 2:51 PM MST on March 02, 2015

... Winter Storm Warning remains in effect from 6 PM this evening
to noon MST Tuesday...

A Winter Storm Warning for heavy snow and blowing snow remains in
effect from 6 PM this evening to noon MST Tuesday.

* Timing... this evening through noon on Tuesday. The most intense
snowfall is expected overnight.

* Impacts... hazardous driving conditions on area roadways. The cold
and snow will also threaten Young livestock.

* Snow accumulation... 6 to 12 inches in the beartooth and Red
Lodge foothills... with 4 to 8 inches in the foothills of the
big horns.

* Winds... north at 15 to 30 mph.

* Wind chill values... 15 to 25 below zero.

Precautionary/preparedness actions...

Dangerous driving conditions are expected overnight due to limited
visibility and slick or snowpacked roads. Drifting snow may also
impede travel. Please check Road reports or delay travel.